map of LUQ home
LUQ - Airport
Location
City:  San Luis, San Luis, Argentina
Name:Brigadier Mayor César Raúl Ojeda Airport
ICAO:SAOU
IATA:LUQ

Details
Type:Airport (Aerodrome, Airfield)
Latitude:33°16'23"S (-33.273191)
Longitude:66°21'23"W (-66.356421)
Datum:WGS 1984
Elevation:2329 ft (710 m)
Variation:2.75°W (WMM2015v2 magnetic declination)
-0.18° annual change
Runways:1
Longest:9678 × 98 ft (2950 × 30 m), paved

Time
Time Zone:UTC-3
Local Time:

Weather
METAR:SAOU 032040Z 16002KT 9999 BKN035 FEW045CB BKN050 20/18 Q1022 RESHRA

Related Locations
Nearby:
Farthest:NNY: 12379 mi / 19922 km
Nanyang, 41, CN

Find:

   beyond  
but within

Other Information
Maps:
NOTAMs:
Links:
Sources:

  
  • flag of Argentina
  

Sectional Chart

Flight Planning
at skyvector.com

Satellite Image

Google Maps Satellite view

 

Copyright © 2004-2019 Karl L. Swartz. All rights reserved.
The Great Circle Mapper name and logo are trademarks of the Great Circle Mapper.
All other trademarks mentioned herein belong to their respective owners.
Please see credits for attibutions and further copyright information.

  Follow gcmap on Facebook Follow gcmap on Twitter GCmap on LinkedIn

hCard Microformat

Geo Microformat